Time;durP1;ratioP1;P1;durP2;ratioP2;P2;SDS_P1;SDS_P2;PMS_P1;PMS_P2;Temp;Humidity;BMP_temperature;BMP_pressure;BME280_temperature;BME280_humidity;BME280_pressure;Samples;Min_cycle;Max_cycle;Signal;HPM_P1;HPM_P2
2022/10/18 00:02:12;;;;;;;18.80;10.43;;;15.50;99.90;;;;;;5013309;28;20018;-82
2022/10/18 00:04:37;;;;;;;16.30;10.38;;;15.50;99.90;;;;;;4998718;28;20038;-82
2022/10/18 00:07:03;;;;;;;16.60;10.15;;;15.50;99.90;;;;;;5001774;28;20191;-82
2022/10/18 00:09:29;;;;;;;20.58;10.13;;;15.50;99.90;;;;;;4996344;28;20477;-82
2022/10/18 00:11:55;;;;;;;15.02;10.13;;;15.50;99.90;;;;;;4996120;28;20026;-82
2022/10/18 00:14:21;;;;;;;19.13;10.73;;;15.50;99.90;;;;;;4998890;28;20189;-81
2022/10/18 00:16:48;;;;;;;18.52;10.63;;;15.50;99.90;;;;;;4996230;28;20026;-82
2022/10/18 00:19:14;;;;;;;14.15;10.43;;;15.50;99.90;;;;;;4996503;28;20049;-82
2022/10/18 00:21:41;;;;;;;13.98;10.60;;;15.50;99.90;;;;;;5011038;28;20385;-82
2022/10/18 00:24:06;;;;;;;17.02;10.30;;;15.50;99.90;;;;;;4996135;28;20037;-82
2022/10/18 00:26:33;;;;;;;22.50;10.52;;;15.50;99.90;;;;;;4998576;28;20025;-82
2022/10/18 00:29:02;;;;;;;16.92;10.30;;;15.50;99.90;;;;;;4995923;28;20022;-82
2022/10/18 00:31:33;;;;;;;15.95;9.88;;;15.50;99.90;;;;;;4995276;28;20026;-83
2022/10/18 00:34:04;;;;;;;18.42;10.02;;;15.60;99.90;;;;;;4998471;28;20568;-83
2022/10/18 00:36:33;;;;;;;14.15;9.57;;;15.50;99.90;;;;;;4995844;28;20054;-82
2022/10/18 00:39:01;;;;;;;12.07;9.60;;;15.50;99.90;;;;;;4998668;28;20458;-82
2022/10/18 00:41:31;;;;;;;11.77;9.25;;;15.50;99.90;;;;;;4995298;28;20125;-83
2022/10/18 00:43:58;;;;;;;14.88;9.43;;;15.50;99.90;;;;;;4995728;28;20548;-82
2022/10/18 00:46:28;;;;;;;12.10;9.65;;;15.60;99.90;;;;;;4998474;28;20096;-82
2022/10/18 00:48:56;;;;;;;14.00;9.88;;;15.60;99.90;;;;;;5013303;28;20080;-82
2022/10/18 00:51:24;;;;;;;18.27;11.07;;;15.50;99.90;;;;;;5016077;28;20026;-83
2022/10/18 00:53:50;;;;;;;18.13;9.80;;;15.60;99.90;;;;;;5013938;28;20033;-82
2022/10/18 00:56:16;;;;;;;15.10;10.10;;;15.50;99.90;;;;;;4996996;28;20029;-82
2022/10/18 00:58:43;;;;;;;28.10;11.18;;;15.60;99.90;;;;;;5018886;28;20018;-82
2022/10/18 01:01:09;;;;;;;20.70;10.23;;;15.50;99.90;;;;;;4996310;28;20025;-81
2022/10/18 01:03:36;;;;;;;26.30;10.18;;;15.50;99.90;;;;;;5013412;28;20431;-82
2022/10/18 01:06:07;;;;;;;21.63;11.15;;;15.50;99.90;;;;;;4979395;28;20087;-82
2022/10/18 01:08:55;;;;;;;25.60;11.02;;;15.60;99.90;;;;;;4995467;28;20100;-82
2022/10/18 01:11:44;;;;;;;15.18;9.88;;;15.50;99.90;;;;;;4992949;28;20029;-82
2022/10/18 01:14:25;;;;;;;15.90;9.75;;;15.50;99.90;;;;;;4995233;28;20018;-83
2022/10/18 01:17:17;;;;;;;14.43;9.90;;;15.50;99.90;;;;;;4997064;28;20049;-82
2022/10/18 01:20:00;;;;;;;13.93;9.32;;;15.60;99.90;;;;;;5008130;28;20019;-81
2022/10/18 01:22:33;;;;;;;17.10;10.43;;;15.60;99.90;;;;;;5000965;28;20030;-81
2022/10/18 01:25:30;;;;;;;12.48;9.52;;;15.60;99.90;;;;;;4999183;28;20026;-82
2022/10/18 01:28:39;;;;;;;14.98;9.52;;;15.60;99.90;;;;;;5000983;28;20034;-81
2022/10/18 01:31:13;;;;;;;27.17;9.98;;;15.60;99.90;;;;;;4946160;28;20038;-81
2022/10/18 01:33:55;;;;;;;12.02;9.00;;;15.60;99.90;;;;;;4995577;28;20038;-82
2022/10/18 01:36:31;;;;;;;14.13;9.25;;;15.60;99.90;;;;;;4995826;28;20026;-82
2022/10/18 01:39:00;;;;;;;15.45;9.02;;;15.60;99.90;;;;;;4993233;28;20452;-82
2022/10/18 01:41:27;;;;;;;21.50;9.85;;;15.60;99.90;;;;;;4998070;28;20128;-82
2022/10/18 01:43:57;;;;;;;13.57;9.70;;;15.60;99.90;;;;;;4998882;28;20025;-82
2022/10/18 01:46:24;;;;;;;15.35;9.75;;;15.60;99.90;;;;;;5019492;28;20073;-82
2022/10/18 01:48:52;;;;;;;13.75;9.00;;;15.60;99.90;;;;;;4999239;28;20049;-82
2022/10/18 01:51:26;;;;;;;15.43;9.82;;;15.60;99.90;;;;;;5004240;28;20013;-82
2022/10/18 01:53:52;;;;;;;12.27;8.93;;;15.60;99.90;;;;;;4986358;28;20121;-82
2022/10/18 01:56:24;;;;;;;19.42;10.15;;;15.50;99.90;;;;;;5000091;28;20045;-82
2022/10/18 01:58:55;;;;;;;21.15;10.55;;;15.50;99.90;;;;;;5001262;28;20030;-82
2022/10/18 02:01:36;;;;;;;11.93;9.38;;;15.50;99.90;;;;;;5018247;28;20540;-82
2022/10/18 02:04:33;;;;;;;21.27;9.48;;;15.50;99.90;;;;;;5016567;28;20116;-83
2022/10/18 02:07:40;;;;;;;20.67;8.95;;;15.50;99.90;;;;;;4965246;28;20056;-83
2022/10/18 02:10:17;;;;;;;11.43;8.80;;;15.50;99.90;;;;;;4973639;28;20037;-82
2022/10/18 02:12:45;;;;;;;17.77;9.48;;;15.50;99.90;;;;;;4997584;28;20045;-82
2022/10/18 02:15:15;;;;;;;13.88;9.38;;;15.40;99.90;;;;;;4998434;28;20052;-81
2022/10/18 02:17:43;;;;;;;16.58;9.68;;;15.40;99.90;;;;;;4994046;28;20018;-82
2022/10/18 02:20:10;;;;;;;16.25;9.02;;;15.40;99.90;;;;;;5001286;28;20045;-81
2022/10/18 02:22:38;;;;;;;15.43;9.77;;;15.40;99.90;;;;;;4984469;28;20037;-81
2022/10/18 02:25:09;;;;;;;24.85;10.18;;;15.40;99.90;;;;;;5017553;28;20022;-82
2022/10/18 02:27:37;;;;;;;19.08;10.75;;;15.40;99.90;;;;;;4997759;28;20608;-82
2022/10/18 02:30:04;;;;;;;15.00;10.50;;;15.30;99.90;;;;;;5000982;28;20097;-82
2022/10/18 02:32:43;;;;;;;25.23;10.25;;;15.30;99.90;;;;;;4982225;28;20072;-83
2022/10/18 02:35:30;;;;;;;14.48;8.75;;;15.40;99.90;;;;;;5014734;28;20687;-82
2022/10/18 02:37:58;;;;;;;11.23;9.02;;;15.30;99.90;;;;;;4980801;28;20197;-82
2022/10/18 02:40:25;;;;;;;23.85;10.45;;;15.30;99.90;;;;;;4982055;28;20399;-82
2022/10/18 02:42:56;;;;;;;13.90;9.90;;;15.30;99.90;;;;;;4999764;28;20126;-82
2022/10/18 02:45:23;;;;;;;12.82;9.50;;;15.30;99.90;;;;;;4998030;28;20060;-82
2022/10/18 02:47:49;;;;;;;12.82;10.00;;;15.30;99.90;;;;;;4997698;28;20022;-82
2022/10/18 02:50:15;;;;;;;12.55;9.68;;;15.30;99.90;;;;;;4997671;28;20037;-83
2022/10/18 02:52:41;;;;;;;16.65;9.85;;;15.30;99.90;;;;;;4976585;28;20039;-81
2022/10/18 02:55:08;;;;;;;20.73;9.90;;;15.30;99.90;;;;;;5017392;28;20035;-82
2022/10/18 02:57:34;;;;;;;12.80;9.63;;;15.20;99.90;;;;;;5014539;28;20034;-82
2022/10/18 03:00:00;;;;;;;15.15;9.90;;;15.20;99.90;;;;;;4997626;28;20022;-82
2022/10/18 03:02:26;;;;;;;18.25;9.95;;;15.20;99.90;;;;;;5000207;28;20076;-82
2022/10/18 03:04:52;;;;;;;17.38;10.23;;;15.10;99.90;;;;;;4981049;28;20092;-82
2022/10/18 03:07:19;;;;;;;13.90;9.85;;;15.10;99.90;;;;;;5002934;28;20377;-82
2022/10/18 03:09:46;;;;;;;15.13;9.77;;;15.10;99.90;;;;;;5015741;28;20005;-81
2022/10/18 03:12:12;;;;;;;15.70;10.05;;;15.00;99.90;;;;;;5017606;28;20041;-82
2022/10/18 03:14:39;;;;;;;12.55;9.80;;;15.00;99.90;;;;;;5016210;28;20454;-82
2022/10/18 03:17:05;;;;;;;15.32;9.85;;;15.00;99.90;;;;;;4983045;28;20037;-81
2022/10/18 03:19:32;;;;;;;15.38;9.57;;;15.00;99.90;;;;;;4998830;28;20035;-81
2022/10/18 03:21:58;;;;;;;15.57;10.07;;;15.00;99.90;;;;;;4998301;28;20057;-81
2022/10/18 03:24:24;;;;;;;13.45;9.43;;;15.00;99.90;;;;;;5016046;28;20026;-81
2022/10/18 03:26:50;;;;;;;11.98;8.60;;;15.00;99.90;;;;;;4982355;28;20037;-82
2022/10/18 03:29:17;;;;;;;11.68;9.43;;;14.90;99.90;;;;;;4998007;28;20113;-83
2022/10/18 03:31:43;;;;;;;12.07;8.38;;;15.00;99.90;;;;;;5016280;28;20026;-83
2022/10/18 03:34:09;;;;;;;10.57;8.38;;;14.90;99.90;;;;;;4998173;28;20168;-82
2022/10/18 03:36:35;;;;;;;12.13;9.00;;;14.90;99.90;;;;;;4997614;28;20037;-82
2022/10/18 03:39:01;;;;;;;11.95;8.48;;;14.90;99.90;;;;;;4997450;28;20018;-82
2022/10/18 03:41:27;;;;;;;11.10;8.80;;;14.90;99.90;;;;;;4996854;28;20944;-81
2022/10/18 03:43:54;;;;;;;10.60;8.20;;;14.80;99.90;;;;;;4996946;28;20460;-82
2022/10/18 03:46:22;;;;;;;13.18;8.82;;;14.90;99.90;;;;;;4997045;28;20062;-82
2022/10/18 03:48:47;;;;;;;16.48;9.60;;;14.80;99.90;;;;;;4996902;28;20022;-81
2022/10/18 03:51:13;;;;;;;15.85;9.07;;;14.80;99.90;;;;;;4997067;28;20037;-82
2022/10/18 03:53:40;;;;;;;14.38;8.57;;;14.80;99.90;;;;;;4996905;28;20388;-82
2022/10/18 03:56:06;;;;;;;15.40;8.00;;;14.80;99.90;;;;;;4980900;28;20029;-82
2022/10/18 03:58:31;;;;;;;17.13;8.60;;;14.80;99.90;;;;;;4996771;28;20358;-82
2022/10/18 04:00:57;;;;;;;17.58;8.75;;;14.80;99.90;;;;;;4997034;28;20026;-83
2022/10/18 04:03:25;;;;;;;12.27;8.02;;;14.80;99.90;;;;;;4996758;28;20077;-83
2022/10/18 04:05:51;;;;;;;9.73;7.93;;;14.80;99.90;;;;;;4996548;28;20049;-82
2022/10/18 04:08:17;;;;;;;9.55;7.63;;;14.80;99.90;;;;;;4996799;28;20022;-82
2022/10/18 04:10:44;;;;;;;10.90;7.60;;;14.80;99.90;;;;;;4998333;28;20014;-82
2022/10/18 04:13:12;;;;;;;9.75;7.85;;;14.70;99.90;;;;;;5013953;28;20026;-82
2022/10/18 04:15:37;;;;;;;9.18;7.43;;;14.70;99.90;;;;;;4996512;28;20026;-82
2022/10/18 04:18:04;;;;;;;12.73;7.63;;;14.70;99.90;;;;;;4996960;28;20026;-83
2022/10/18 04:20:30;;;;;;;12.50;7.82;;;14.70;99.90;;;;;;4996499;28;20093;-82
2022/10/18 04:22:56;;;;;;;11.82;7.32;;;14.70;99.90;;;;;;4996489;28;20458;-83
2022/10/18 04:25:22;;;;;;;12.10;8.10;;;14.70;99.90;;;;;;4979889;28;20117;-83
2022/10/18 04:27:49;;;;;;;14.23;7.80;;;14.70;99.90;;;;;;4996505;28;20458;-84
2022/10/18 04:30:15;;;;;;;10.40;7.70;;;14.70;99.90;;;;;;4996116;28;20025;-83
2022/10/18 04:32:41;;;;;;;11.93;7.70;;;14.60;99.90;;;;;;4996618;28;20029;-83
2022/10/18 04:35:07;;;;;;;9.43;8.07;;;14.60;99.90;;;;;;4996419;28;20488;-82
2022/10/18 04:37:34;;;;;;;9.88;7.85;;;14.60;99.90;;;;;;4980333;28;20058;-82
2022/10/18 04:39:59;;;;;;;9.32;8.27;;;14.60;99.90;;;;;;4995863;28;20022;-83
2022/10/18 04:42:25;;;;;;;9.90;7.60;;;14.70;99.90;;;;;;4995691;28;20574;-84
2022/10/18 04:44:53;;;;;;;10.95;7.50;;;14.60;99.90;;;;;;4995807;28;20085;-82
2022/10/18 04:47:18;;;;;;;8.52;7.63;;;14.60;99.90;;;;;;4979835;28;20041;-82
2022/10/18 04:49:45;;;;;;;10.55;7.32;;;14.60;99.90;;;;;;5013322;28;20022;-83
2022/10/18 04:52:12;;;;;;;9.00;7.22;;;14.60;99.90;;;;;;4995851;28;20064;-82
2022/10/18 04:54:38;;;;;;;9.07;8.02;;;14.60;99.90;;;;;;4996232;28;20037;-83
2022/10/18 04:57:04;;;;;;;9.93;7.93;;;14.60;99.90;;;;;;4976402;28;20032;-82
2022/10/18 04:59:29;;;;;;;10.55;7.70;;;14.60;99.90;;;;;;4977949;28;20041;-82
2022/10/18 05:01:57;;;;;;;9.93;7.32;;;14.60;99.90;;;;;;5003216;28;20022;-82
2022/10/18 05:04:23;;;;;;;13.68;7.85;;;14.60;99.90;;;;;;5004542;28;20466;-82
2022/10/18 05:06:48;;;;;;;9.57;7.72;;;14.60;99.90;;;;;;4999023;28;20034;-82
2022/10/18 05:09:15;;;;;;;14.05;8.85;;;14.60;99.90;;;;;;4997036;28;20028;-82
2022/10/18 05:11:40;;;;;;;11.02;8.40;;;14.50;99.90;;;;;;4996162;28;20033;-82
2022/10/18 05:14:09;;;;;;;9.10;8.10;;;14.50;99.90;;;;;;4996909;28;20022;-83
2022/10/18 05:16:34;;;;;;;10.32;8.02;;;14.50;99.90;;;;;;5014541;28;20018;-83
2022/10/18 05:19:02;;;;;;;11.02;8.32;;;14.50;99.90;;;;;;4998955;28;20527;-83
2022/10/18 05:21:27;;;;;;;8.57;7.40;;;14.40;99.90;;;;;;4999594;28;20026;-82
2022/10/18 05:23:59;;;;;;;10.48;7.70;;;14.40;99.90;;;;;;4998890;28;20083;-82
2022/10/18 05:26:26;;;;;;;12.50;7.63;;;14.40;99.90;;;;;;4999704;28;20025;-82
2022/10/18 05:28:52;;;;;;;10.00;7.75;;;14.40;99.90;;;;;;4986994;28;20034;-82
2022/10/18 05:31:20;;;;;;;8.98;7.25;;;14.40;99.90;;;;;;4983788;28;20045;-83
2022/10/18 05:33:45;;;;;;;10.77;7.72;;;14.40;99.90;;;;;;4999176;28;20030;-83
2022/10/18 05:36:15;;;;;;;10.77;8.00;;;14.40;99.90;;;;;;4997814;28;20026;-83
2022/10/18 05:38:47;;;;;;;10.93;7.63;;;14.40;99.90;;;;;;5006180;28;20033;-83
2022/10/18 05:41:13;;;;;;;9.70;7.95;;;14.40;99.90;;;;;;4997544;28;20030;-83
2022/10/18 05:43:42;;;;;;;10.60;7.82;;;14.40;99.90;;;;;;5002401;28;20449;-83
2022/10/18 05:46:15;;;;;;;10.10;7.20;;;14.40;99.90;;;;;;4981911;28;20034;-83
2022/10/18 05:48:41;;;;;;;9.57;7.53;;;14.40;99.90;;;;;;5015238;28;20485;-83
2022/10/18 05:51:07;;;;;;;11.05;7.53;;;14.40;99.90;;;;;;5016142;28;20034;-83
2022/10/18 05:53:35;;;;;;;9.15;7.35;;;14.40;99.90;;;;;;5001878;28;20032;-83
2022/10/18 05:56:01;;;;;;;10.20;7.45;;;14.40;99.90;;;;;;5003192;28;20022;-83
2022/10/18 05:58:27;;;;;;;11.77;7.82;;;14.40;99.90;;;;;;5002515;28;20121;-83
2022/10/18 06:00:53;;;;;;;11.82;7.78;;;14.40;99.90;;;;;;5000820;28;20050;-83
2022/10/18 06:03:22;;;;;;;12.57;7.68;;;14.40;99.90;;;;;;4998203;28;20444;-83
2022/10/18 06:05:47;;;;;;;15.73;8.45;;;14.40;99.90;;;;;;5000922;28;20034;-82
2022/10/18 06:08:13;;;;;;;9.18;7.70;;;14.40;99.90;;;;;;4972228;28;20026;-83
2022/10/18 06:10:40;;;;;;;11.45;8.35;;;14.40;99.90;;;;;;4992294;28;20385;-83
2022/10/18 06:13:06;;;;;;;10.23;7.53;;;14.40;99.90;;;;;;5006006;28;20105;-83
2022/10/18 06:15:33;;;;;;;10.88;8.38;;;14.40;99.90;;;;;;5012207;28;20022;-83
2022/10/18 06:18:00;;;;;;;11.70;8.73;;;14.40;99.90;;;;;;4989778;28;20117;-84
2022/10/18 06:20:25;;;;;;;10.18;7.85;;;14.40;99.90;;;;;;4983372;28;20029;-83
2022/10/18 06:22:52;;;;;;;9.45;7.30;;;14.40;99.90;;;;;;4998447;28;20064;-84
2022/10/18 06:25:18;;;;;;;12.05;7.57;;;14.40;99.90;;;;;;5015613;28;20048;-83
2022/10/18 06:27:43;;;;;;;12.23;7.88;;;14.40;99.90;;;;;;5000667;28;20548;-83
2022/10/18 06:30:10;;;;;;;12.32;7.97;;;14.40;99.90;;;;;;5012149;28;20061;-83
2022/10/18 06:32:37;;;;;;;11.50;6.95;;;14.40;99.90;;;;;;5015808;28;20088;-83
2022/10/18 06:35:10;;;;;;;12.32;7.78;;;14.40;99.90;;;;;;4984358;28;20086;-84
2022/10/18 06:37:37;;;;;;;12.13;8.20;;;14.40;99.90;;;;;;5000747;28;20378;-83
2022/10/18 06:40:08;;;;;;;13.68;8.60;;;14.40;99.90;;;;;;5000852;28;20070;-84
2022/10/18 06:42:35;;;;;;;11.55;8.52;;;14.40;99.90;;;;;;5000367;28;20053;-84
2022/10/18 06:45:02;;;;;;;16.17;8.73;;;14.40;99.90;;;;;;5000578;28;20022;-85
2022/10/18 06:47:33;;;;;;;15.70;8.60;;;14.30;99.90;;;;;;4983474;28;20036;-84
2022/10/18 06:49:59;;;;;;;14.02;8.27;;;14.30;99.90;;;;;;4998027;28;20022;-84
2022/10/18 06:52:28;;;;;;;18.17;8.60;;;14.30;99.90;;;;;;5003192;28;20025;-84
2022/10/18 06:54:54;;;;;;;12.63;8.25;;;14.30;99.90;;;;;;5001812;28;20026;-83
2022/10/18 06:57:23;;;;;;;9.65;7.38;;;14.30;99.90;;;;;;4991644;28;20111;-81
2022/10/18 06:59:51;;;;;;;11.18;8.35;;;14.30;99.90;;;;;;5020649;28;20010;-83
2022/10/18 07:02:17;;;;;;;12.43;8.50;;;14.40;99.90;;;;;;5007831;28;20018;-83
2022/10/18 07:04:45;;;;;;;11.70;7.57;;;14.30;99.90;;;;;;5001659;28;20030;-83
2022/10/18 07:07:14;;;;;;;12.73;8.45;;;14.30;99.90;;;;;;5022405;28;20033;-83
2022/10/18 07:09:44;;;;;;;13.13;8.02;;;14.30;99.90;;;;;;4998743;28;20028;-82
2022/10/18 07:12:11;;;;;;;12.98;8.43;;;14.20;99.90;;;;;;4999108;28;20025;-84
2022/10/18 07:14:36;;;;;;;13.27;8.63;;;14.20;99.90;;;;;;4985055;28;20034;-83
2022/10/18 07:17:02;;;;;;;12.88;9.48;;;14.20;99.90;;;;;;5001274;28;20089;-84
2022/10/18 07:19:31;;;;;;;12.88;8.15;;;14.20;99.90;;;;;;5020866;28;20024;-84
2022/10/18 07:21:59;;;;;;;12.63;8.15;;;14.20;99.90;;;;;;4996749;28;20022;-84
2022/10/18 07:24:28;;;;;;;12.52;8.95;;;14.30;99.90;;;;;;5003103;28;20069;-85
2022/10/18 07:26:59;;;;;;;15.27;8.88;;;14.30;99.90;;;;;;4986266;28;20041;-84
2022/10/18 07:29:27;;;;;;;12.38;8.80;;;14.20;99.90;;;;;;4997852;28;20120;-84
2022/10/18 07:31:56;;;;;;;16.15;9.85;;;14.30;99.90;;;;;;4997785;28;20026;-84
2022/10/18 07:34:22;;;;;;;13.05;9.77;;;14.30;99.90;;;;;;4991799;28;20121;-84
2022/10/18 07:36:51;;;;;;;14.23;9.07;;;14.30;99.90;;;;;;4978340;28;20454;-84
2022/10/18 07:39:17;;;;;;;13.40;9.00;;;14.30;99.90;;;;;;4988645;28;20022;-84
2022/10/18 07:41:48;;;;;;;13.60;8.70;;;14.30;99.90;;;;;;4998086;28;20060;-83
2022/10/18 07:44:17;;;;;;;13.55;8.75;;;14.30;99.90;;;;;;4993217;28;20038;-84
2022/10/18 07:46:46;;;;;;;12.32;7.95;;;14.20;99.90;;;;;;4993966;28;20075;-84
2022/10/18 07:49:17;;;;;;;10.57;7.82;;;14.20;99.90;;;;;;4997706;28;20079;-84
2022/10/18 07:51:42;;;;;;;10.48;7.22;;;14.10;99.90;;;;;;5003101;28;20403;-83
2022/10/18 07:54:08;;;;;;;11.98;7.28;;;14.10;99.90;;;;;;4979938;28;20022;-83
2022/10/18 07:56:34;;;;;;;12.25;7.18;;;14.10;99.90;;;;;;4991940;28;20025;-84
2022/10/18 07:59:01;;;;;;;9.73;7.03;;;14.10;99.90;;;;;;4996276;28;20021;-83
2022/10/18 08:01:26;;;;;;;9.40;6.70;;;14.10;99.90;;;;;;4999238;28;20053;-83
2022/10/18 08:03:53;;;;;;;10.73;7.22;;;14.10;99.90;;;;;;4998593;28;20099;-84
2022/10/18 08:06:22;;;;;;;10.10;6.85;;;14.10;99.90;;;;;;4982264;28;20041;-83
2022/10/18 08:08:48;;;;;;;9.90;7.03;;;14.10;99.90;;;;;;4995922;28;20473;-83
2022/10/18 08:11:19;;;;;;;9.02;6.38;;;14.20;99.90;;;;;;4996497;28;20029;-83
2022/10/18 08:13:46;;;;;;;10.68;7.10;;;14.20;99.90;;;;;;5013910;28;20026;-83
2022/10/18 08:16:18;;;;;;;9.63;6.75;;;14.20;99.90;;;;;;5001609;28;20010;-83
2022/10/18 08:18:43;;;;;;;9.52;6.28;;;14.20;99.90;;;;;;4995543;28;20038;-82
2022/10/18 08:21:11;;;;;;;10.60;5.90;;;14.30;99.90;;;;;;5014208;28;20088;-83
2022/10/18 08:23:38;;;;;;;9.45;6.93;;;14.30;99.90;;;;;;4998846;28;20036;-82
2022/10/18 08:26:19;;;;;;;8.88;6.80;;;14.30;99.90;;;;;;4978529;28;20040;-81
2022/10/18 08:28:45;;;;;;;8.77;6.28;;;14.40;99.90;;;;;;4967720;28;20378;-83
2022/10/18 08:31:16;;;;;;;9.55;6.78;;;14.40;99.90;;;;;;5016367;28;20024;-81
2022/10/18 08:33:42;;;;;;;11.07;6.95;;;14.50;99.90;;;;;;4979487;28;20493;-82
2022/10/18 08:36:12;;;;;;;9.90;6.65;;;14.50;99.90;;;;;;4995812;28;20037;-82
2022/10/18 08:38:41;;;;;;;8.48;5.72;;;14.50;99.90;;;;;;4995781;28;20046;-82
2022/10/18 08:41:35;;;;;;;9.82;6.65;;;14.60;99.90;;;;;;4995492;28;20036;-81
2022/10/18 08:44:06;;;;;;;;;;;14.70;99.90;;;;;;4992434;28;20102;-82
2022/10/18 08:46:34;;;;;;;9.32;5.93;;;14.60;99.90;;;;;;4995281;28;19978;-81
2022/10/18 08:49:02;;;;;;;10.73;6.38;;;14.70;99.90;;;;;;4995665;28;20541;-82
2022/10/18 08:51:45;;;;;;;9.25;5.90;;;14.70;99.90;;;;;;5023192;28;20112;-80
2022/10/18 08:54:37;;;;;;;6.82;4.80;;;14.80;99.90;;;;;;5012508;28;20038;-81
2022/10/18 08:57:14;;;;;;;7.75;4.80;;;14.90;99.90;;;;;;5008685;28;20050;-83
2022/10/18 08:59:40;;;;;;;7.35;4.70;;;15.00;99.90;;;;;;4996459;28;20113;-82
2022/10/18 09:02:16;;;;;;;12.55;5.80;;;15.10;99.90;;;;;;4995737;28;20029;-82
2022/10/18 09:05:21;;;;;;;9.45;4.57;;;15.50;99.90;;;;;;4996311;28;20065;-83
2022/10/18 09:08:24;;;;;;;4.97;2.95;;;17.20;99.90;;;;;;4995278;28;20022;-82
2022/10/18 09:10:54;;;;;;;;;;;19.30;99.90;;;;;;5010239;28;20018;-83
2022/10/18 09:13:53;;;;;;;2.40;1.52;;;20.70;99.90;;;;;;4996373;28;19996;-83
2022/10/18 09:16:41;;;;;;;3.47;1.85;;;22.20;99.90;;;;;;4995339;28;20156;-81
2022/10/18 09:19:53;;;;;;;3.60;1.60;;;23.40;99.90;;;;;;4950198;28;20083;-81
2022/10/18 09:22:24;;;;;;;3.28;1.40;;;24.60;99.90;;;;;;4996280;28;20393;-82
2022/10/18 09:24:56;;;;;;;4.00;1.70;;;25.20;99.90;;;;;;5010799;28;20032;-82
2022/10/18 09:27:33;;;;;;;5.30;1.70;;;25.80;99.90;;;;;;4997676;28;20113;-82
2022/10/18 09:30:18;;;;;;;3.47;1.15;;;26.30;99.90;;;;;;4994558;28;20121;-81
2022/10/18 09:33:10;;;;;;;4.85;1.30;;;26.60;99.90;;;;;;5014363;28;20021;-81
2022/10/18 09:35:49;;;;;;;4.05;1.15;;;27.00;99.90;;;;;;4994248;28;20030;-82
2022/10/18 09:38:19;;;;;;;6.97;1.45;;;27.20;99.90;;;;;;5010515;28;20023;-81
2022/10/18 09:41:00;;;;;;;4.03;1.23;;;27.20;99.90;;;;;;4994443;28;20026;-82
2022/10/18 09:43:54;;;;;;;2.90;1.00;;;27.00;99.90;;;;;;4994729;28;20516;-82
2022/10/18 09:46:23;;;;;;;3.25;1.17;;;26.80;99.90;;;;;;4996441;28;20033;-81
2022/10/18 09:49:03;;;;;;;5.03;1.52;;;26.80;99.90;;;;;;4994365;28;20076;-82
2022/10/18 09:51:37;;;;;;;3.42;1.25;;;27.00;99.90;;;;;;4998072;28;20374;-82
2022/10/18 09:54:16;;;;;;;8.65;1.25;;;27.50;99.90;;;;;;5002899;28;20069;-81
2022/10/18 09:56:49;;;;;;;5.07;1.30;;;28.10;99.90;;;;;;5013332;28;20022;-81
2022/10/18 09:59:37;;;;;;;2.83;0.98;;;28.10;99.90;;;;;;4992940;28;20466;-81
2022/10/18 10:02:04;;;;;;;4.32;1.05;;;28.30;99.90;;;;;;5011177;28;20068;-81
2022/10/18 10:04:30;;;;;;;2.60;0.80;;;28.40;99.90;;;;;;5000943;28;20137;-81
2022/10/18 10:07:00;;;;;;;3.72;0.70;;;28.60;99.90;;;;;;4984295;28;20025;-82
2022/10/18 10:09:39;;;;;;;4.47;1.17;;;28.90;99.90;;;;;;5000749;28;20021;-81
2022/10/18 10:12:28;;;;;;;2.20;0.80;;;29.00;99.90;;;;;;4984778;28;20072;-81
2022/10/18 10:15:08;;;;;;;5.32;1.00;;;29.00;99.90;;;;;;5002227;28;20029;-82
2022/10/18 10:17:35;;;;;;;2.78;0.70;;;29.20;99.90;;;;;;5001817;28;20112;-81
2022/10/18 10:20:09;;;;;;;3.53;0.95;;;29.40;99.90;;;;;;4998192;28;20184;-81
2022/10/18 10:22:38;;;;;;;1.98;0.70;;;29.80;99.90;;;;;;4997595;28;20083;-82
2022/10/18 10:25:05;;;;;;;4.03;1.02;;;29.90;99.90;;;;;;5004315;28;20049;-81
2022/10/18 10:27:42;;;;;;;4.13;0.90;;;30.00;99.90;;;;;;4994458;28;20025;-81
2022/10/18 10:30:23;;;;;;;3.30;0.80;;;30.10;99.90;;;;;;5016726;28;20041;-81
2022/10/18 10:32:51;;;;;;;3.97;0.82;;;30.30;99.90;;;;;;4998642;28;20475;-81
2022/10/18 10:35:38;;;;;;;3.05;0.77;;;30.40;99.90;;;;;;4998290;28;20062;-81
2022/10/18 10:38:05;;;;;;;3.67;0.75;;;30.60;99.90;;;;;;4996407;28;20056;-81
2022/10/18 10:40:39;;;;;;;3.47;1.00;;;30.80;99.90;;;;;;4980782;28;20032;-81
2022/10/18 10:43:22;;;;;;;4.82;0.75;;;30.90;99.90;;;;;;4997976;28;20561;-81
2022/10/18 10:46:19;;;;;;;3.67;0.95;;;30.80;99.90;;;;;;5007978;28;20022;-78
2022/10/18 10:48:59;;;;;;;3.28;0.80;;;31.00;99.90;;;;;;5033189;28;20018;-80
2022/10/18 10:51:33;;;;;;;3.25;0.80;;;30.90;99.90;;;;;;5027202;28;20634;-81
2022/10/18 10:54:15;;;;;;;4.80;0.90;;;30.80;99.90;;;;;;5020365;28;20108;-80
2022/10/18 10:56:57;;;;;;;;;;;30.90;99.90;;;;;;5001270;28;20040;-80
2022/10/18 10:59:25;;;;;;;3.65;0.95;;;31.00;99.90;;;;;;5010445;28;20016;-79
2022/10/18 11:02:13;;;;;;;3.90;0.93;;;31.30;99.90;;;;;;5016167;28;20048;-80
2022/10/18 11:04:43;;;;;;;3.70;0.90;;;31.40;99.90;;;;;;5000360;28;20033;-80
2022/10/18 11:07:19;;;;;;;4.93;0.68;;;31.30;99.60;;;;;;5015344;28;20466;-81
2022/10/18 11:09:49;;;;;;;3.20;0.90;;;31.20;98.60;;;;;;5001946;28;20072;-80
2022/10/18 11:12:36;;;;;;;4.03;1.00;;;31.20;98.00;;;;;;4998852;28;20023;-79
2022/10/18 11:15:10;;;;;;;2.92;0.57;;;31.30;96.30;;;;;;5013955;28;20073;-79
2022/10/18 11:17:55;;;;;;;5.15;0.98;;;31.20;95.50;;;;;;5016333;28;20528;-80
2022/10/18 11:20:30;;;;;;;3.72;0.82;;;31.30;94.40;;;;;;4992396;28;20120;-80
2022/10/18 11:23:00;;;;;;;3.17;0.77;;;31.60;94.50;;;;;;4988134;28;20066;-80
2022/10/18 11:25:51;;;;;;;3.25;0.80;;;31.80;94.20;;;;;;5012040;28;20022;-80
2022/10/18 11:28:33;;;;;;;3.63;0.85;;;31.90;93.20;;;;;;4978771;28;20070;-79
2022/10/18 11:31:18;;;;;;;3.55;0.80;;;31.90;93.10;;;;;;4990346;28;20470;-78
2022/10/18 11:33:50;;;;;;;2.92;1.00;;;31.90;92.10;;;;;;5010238;28;20040;-79
2022/10/18 11:36:28;;;;;;;4.55;0.95;;;31.60;91.80;;;;;;4993046;28;20046;-79
2022/10/18 11:39:19;;;;;;;3.70;0.80;;;31.80;91.90;;;;;;4996553;28;20057;-80
2022/10/18 11:41:56;;;;;;;2.53;0.88;;;32.30;92.20;;;;;;4994301;28;20064;-80
2022/10/18 11:44:27;;;;;;;3.58;0.90;;;32.20;92.00;;;;;;4994338;28;20088;-79
2022/10/18 11:47:26;;;;;;;3.20;0.90;;;32.40;91.00;;;;;;5010953;28;20112;-79
2022/10/18 11:49:54;;;;;;;5.25;1.20;;;32.40;88.00;;;;;;4956755;28;20041;-79
2022/10/18 11:52:35;;;;;;;4.65;1.30;;;32.00;89.40;;;;;;5009578;28;20026;-80
2022/10/18 11:55:35;;;;;;;4.30;1.05;;;32.10;88.70;;;;;;5011830;28;20033;-78
2022/10/18 11:58:42;;;;;;;5.80;1.25;;;31.90;85.20;;;;;;4995100;28;20029;-80
2022/10/18 12:01:29;;;;;;;3.50;1.15;;;31.70;86.20;;;;;;4889456;29;20151;-78
2022/10/18 12:04:26;;;;;;;3.03;0.93;;;31.90;86.50;;;;;;4992064;28;20505;-78
2022/10/18 12:06:55;;;;;;;3.33;0.95;;;32.40;87.10;;;;;;5011690;28;20611;-80
2022/10/18 12:09:30;;;;;;;3.47;0.98;;;32.70;87.30;;;;;;4962191;28;20040;-79
2022/10/18 12:12:15;;;;;;;3.83;1.10;;;33.20;86.00;;;;;;4987449;28;20462;-79
2022/10/18 12:15:19;;;;;;;3.92;0.70;;;33.50;85.70;;;;;;4993006;28;20474;-81
2022/10/18 12:18:13;;;;;;;3.35;0.90;;;33.30;86.80;;;;;;5006528;28;20035;-80
2022/10/18 12:20:51;;;;;;;3.35;0.85;;;33.10;87.60;;;;;;4992267;28;20026;-80
2022/10/18 12:23:38;;;;;;;5.43;1.02;;;33.10;88.40;;;;;;4990007;28;20033;-80
2022/10/18 12:26:07;;;;;;;4.95;1.05;;;33.30;86.30;;;;;;5002130;28;20038;-80
2022/10/18 12:28:49;;;;;;;3.08;0.70;;;33.30;86.40;;;;;;4989913;28;20030;-80
2022/10/18 12:31:14;;;;;;;2.67;0.60;;;33.30;87.10;;;;;;5008404;28;20072;-80
2022/10/18 12:33:46;;;;;;;3.90;0.85;;;33.30;89.30;;;;;;5001486;28;20080;-79
2022/10/18 12:36:43;;;;;;;4.05;0.80;;;33.20;87.20;;;;;;4991553;28;20128;-79
2022/10/18 12:39:16;;;;;;;3.55;0.80;;;33.10;84.50;;;;;;4996298;28;20030;-77
2022/10/18 12:41:46;;;;;;;3.10;0.90;;;33.00;83.60;;;;;;5009816;28;20029;-78
2022/10/18 12:44:45;;;;;;;3.47;0.70;;;32.90;82.80;;;;;;5031703;28;20105;-79
2022/10/18 12:47:23;;;;;;;2.95;0.80;;;33.10;83.40;;;;;;4951248;28;20105;-79
2022/10/18 12:50:01;;;;;;;3.38;0.77;;;33.30;81.50;;;;;;4992255;28;20025;-79
2022/10/18 12:52:29;;;;;;;2.83;0.90;;;33.00;78.50;;;;;;4994136;28;20075;-79
2022/10/18 12:55:26;;;;;;;3.55;0.60;;;32.80;79.60;;;;;;4997140;28;20158;-80
2022/10/18 12:57:52;;;;;;;2.78;0.80;;;33.00;80.30;;;;;;5003559;28;20018;-81
2022/10/18 13:00:30;;;;;;;2.00;0.65;;;33.30;80.50;;;;;;4996542;28;20120;-80
2022/10/18 13:03:16;;;;;;;4.35;0.90;;;33.50;79.20;;;;;;4995136;28;20084;-80
2022/10/18 13:06:00;;;;;;;3.05;0.73;;;33.20;76.60;;;;;;5008534;28;20436;-81
2022/10/18 13:08:32;;;;;;;2.25;0.68;;;32.80;77.40;;;;;;4998438;28;20029;-80